KDVN/DVN METAR and TAF weather

Enter ICAO airport designator
Station Type Date Time Source
KDVN METAR 2018/04/23 10:52 UTC NOAA

KDVN 231052Z AUTO 05009KT 10SM CLR 04/M02 A3021 RMK AO2 SLP228 T00441022 $


Station Type Date Time Source
KDVN Decoded METAR 2018/04/23 10:52 UTC NOAA

DAVENPORT MUNICIPAL AIRPORT, IA, United States (KDVN) 41-37N 90-35W 228M
Apr 23, 2018 - 06:52 AM EDT / 2018.04.23 1052 UTC
Wind: from the NE (050 degrees) at 10 MPH (9 KT):0
Visibility: 10 mile(s):0
Sky conditions: clear
Temperature: 39.9 F (4.4 C)
Dew Point: 28.0 F (-2.2 C)
Relative Humidity: 62%
Pressure (altimeter): 30.21 in. Hg (1023 hPa)
ob: KDVN 231052Z AUTO 05009KT 10SM CLR 04/M02 A3021 RMK AO2 SLP228 T00441022
cycle: 11

Station Type Date Time Source
KDVN TAF UTC NOAA

Error!


Example: see airport list